createdAt,value
2019-05-02T00:01:37.600Z,64.77
2019-05-02T00:04:07.444Z,64.72
2019-05-02T00:06:37.963Z,64.89
2019-05-02T00:09:11.196Z,65.01
2019-05-02T00:11:40.924Z,64.91
2019-05-02T00:14:10.590Z,64.88
2019-05-02T00:16:40.358Z,65.14
2019-05-02T00:19:13.990Z,64.98
2019-05-02T00:21:43.107Z,64.79
2019-05-02T00:24:13.351Z,64.75
2019-05-02T00:26:42.857Z,65.03
2019-05-02T00:29:12.380Z,65.05
2019-05-02T00:31:46.722Z,65.31
2019-05-02T00:34:13.339Z,65.08
2019-05-02T00:36:42.830Z,65.17
2019-05-02T00:39:13.807Z,65.15
2019-05-02T00:41:43.632Z,65.14
2019-05-02T00:44:13.143Z,65.07
2019-05-02T00:46:42.643Z,65.32
2019-05-02T00:49:12.132Z,65.35
2019-05-02T00:51:41.603Z,65.78
2019-05-02T00:54:11.225Z,65.39
2019-05-02T00:56:44.074Z,65.27
2019-05-02T00:59:12.028Z,65.23
2019-05-02T01:01:45.693Z,65.16
2019-05-02T01:04:23.311Z,65.07
2019-05-02T01:06:53.599Z,64.86
2019-05-02T01:09:23.271Z,64.85
2019-05-02T01:11:52.760Z,64.79
2019-05-02T01:14:22.256Z,64.79
2019-05-02T01:16:54.407Z,64.69
2019-05-02T01:19:23.014Z,64.64
2019-05-02T01:21:52.507Z,65.09
2019-05-02T01:24:21.977Z,65.19
2019-05-02T01:27:07.998Z,65.21
2019-05-02T01:29:44.862Z,65.19
2019-05-02T01:32:18.684Z,65.13
2019-05-02T01:34:54.502Z,65.67
2019-05-02T01:37:38.853Z,65.27
2019-05-02T01:40:08.351Z,65.14
2019-05-02T01:42:39.879Z,65.00
2019-05-02T01:45:11.230Z,64.98
2019-05-02T01:47:41.106Z,65.27
2019-05-02T01:50:10.755Z,65.50
2019-05-02T01:52:40.277Z,65.29
2019-05-02T01:55:09.902Z,65.19
2019-05-02T01:57:39.983Z,65.16
2019-05-02T02:00:12.336Z,65.25
2019-05-02T02:02:41.954Z,65.30
2019-05-02T02:05:11.660Z,65.54
2019-05-02T02:07:41.215Z,65.51
2019-05-02T02:10:14.894Z,65.48
2019-05-02T02:13:02.225Z,65.42
2019-05-02T02:15:13.349Z,65.28
2019-05-02T02:17:46.835Z,65.10
2019-05-02T02:20:15.808Z,65.23
2019-05-02T02:22:46.995Z,65.27
2019-05-02T02:25:26.251Z,65.33
2019-05-02T02:27:59.606Z,65.35
2019-05-02T02:30:27.009Z,65.38
2019-05-02T02:33:00.545Z,65.47
2019-05-02T02:35:27.795Z,65.70
2019-05-02T02:37:57.255Z,65.46
2019-05-02T02:40:32.730Z,65.25
2019-05-02T02:42:58.195Z,65.33
2019-05-02T02:46:01.421Z,65.35
2019-05-02T02:48:33.780Z,65.53
2019-05-02T02:51:03.212Z,65.35
2019-05-02T02:53:32.917Z,65.49
2019-05-02T02:56:08.389Z,65.67
2019-05-02T02:58:45.644Z,65.73
2019-05-02T03:01:09.344Z,66.24
2019-05-02T03:03:39.592Z,66.44
2019-05-02T03:06:09.125Z,66.57
2019-05-02T03:08:46.329Z,66.71
2019-05-02T03:11:11.521Z,66.80
2019-05-02T03:14:05.711Z,66.99
2019-05-02T03:16:46.242Z,67.22
2019-05-02T03:19:08.152Z,67.33
2019-05-02T03:21:39.700Z,67.50
2019-05-02T03:24:09.333Z,67.56
2019-05-02T03:26:38.860Z,67.46
2019-05-02T03:29:08.824Z,67.61
2019-05-02T03:31:38.679Z,67.73
2019-05-02T03:34:08.817Z,67.79
2019-05-02T03:36:38.354Z,67.90
2019-05-02T03:39:14.722Z,67.89
2019-05-02T03:41:39.646Z,68.02
2019-05-02T03:44:11.592Z,68.12
2019-05-02T03:46:41.611Z,68.25
2019-05-02T03:49:11.248Z,68.27
2019-05-02T03:51:40.864Z,68.36
2019-05-02T03:54:10.685Z,68.07
2019-05-02T03:56:44.815Z,68.03
2019-05-02T03:59:11.694Z,68.01
2019-05-02T04:01:43.002Z,68.02
2019-05-02T04:04:14.237Z,67.90
2019-05-02T04:06:44.570Z,67.97
2019-05-02T04:09:39.759Z,67.98
2019-05-02T04:12:11.846Z,67.96
2019-05-02T04:14:39.432Z,68.03
2019-05-02T04:17:11.102Z,68.07
2019-05-02T04:19:41.277Z,68.12
2019-05-02T04:22:11.876Z,68.08
2019-05-02T04:24:47.839Z,68.17
2019-05-02T04:27:13.641Z,68.11
2019-05-02T04:29:43.341Z,68.18
2019-05-02T04:32:14.509Z,68.21
2019-05-02T04:34:48.965Z,68.13
2019-05-02T04:37:16.263Z,68.04
2019-05-02T04:39:48.864Z,68.05
2019-05-02T04:42:22.011Z,68.10
2019-05-02T04:45:12.150Z,68.22
2019-05-02T04:47:21.764Z,68.21
2019-05-02T04:49:52.016Z,68.31
2019-05-02T04:52:21.932Z,68.29
2019-05-02T04:54:51.365Z,68.27
2019-05-02T04:57:27.262Z,68.35
2019-05-02T05:00:04.921Z,68.40
2019-05-02T05:02:34.307Z,68.39
2019-05-02T05:04:54.552Z,68.22
2019-05-02T05:07:24.185Z,68.07
2019-05-02T05:09:58.329Z,68.05
2019-05-02T05:12:27.751Z,68.07
2019-05-02T05:14:57.857Z,67.91
2019-05-02T05:17:32.698Z,68.15
2019-05-02T05:20:00.167Z,68.07
2019-05-02T05:22:29.774Z,68.04
2019-05-02T05:25:00.887Z,68.25
2019-05-02T05:27:30.409Z,68.12
2019-05-02T05:30:08.490Z,68.13
2019-05-02T05:32:31.089Z,67.92
2019-05-02T05:35:03.201Z,67.76
2019-05-02T05:37:31.802Z,68.20
2019-05-02T05:40:01.324Z,68.12
2019-05-02T05:42:33.375Z,68.24
2019-05-02T05:45:03.979Z,68.14
2019-05-02T05:47:33.267Z,67.80
2019-05-02T05:50:02.851Z,67.66
2019-05-02T05:52:32.935Z,67.83
2019-05-02T05:55:04.991Z,67.68
2019-05-02T05:57:34.690Z,67.68
2019-05-02T06:00:15.985Z,67.47
2019-05-02T06:02:52.943Z,67.26
2019-05-02T06:05:11.442Z,67.22
2019-05-02T06:07:44.718Z,66.71
2019-05-02T06:10:12.290Z,65.96
2019-05-02T06:12:41.871Z,66.16
2019-05-02T06:15:11.525Z,65.73
2019-05-02T06:17:41.097Z,65.52
2019-05-02T06:20:11.026Z,65.38
2019-05-02T06:22:40.961Z,65.58
2019-05-02T06:25:10.815Z,65.29
2019-05-02T06:27:40.368Z,65.13
2019-05-02T06:30:10.805Z,64.63
2019-05-02T06:32:40.247Z,64.44
2019-05-02T06:35:09.975Z,64.64
2019-05-02T06:37:40.798Z,64.29
2019-05-02T06:40:10.819Z,64.28
2019-05-02T06:42:40.289Z,63.87
2019-05-02T06:45:10.839Z,64.08
2019-05-02T06:47:41.667Z,64.18
2019-05-02T06:50:13.373Z,63.93
2019-05-02T06:52:42.879Z,64.03
2019-05-02T06:55:12.585Z,63.37
2019-05-02T06:57:42.128Z,63.34
2019-05-02T07:00:11.985Z,63.23
2019-05-02T07:02:41.632Z,63.27
2019-05-02T07:05:11.745Z,62.83
2019-05-02T07:07:41.258Z,62.67
2019-05-02T07:10:11.656Z,62.23
2019-05-02T07:12:41.132Z,62.92
2019-05-02T07:15:28.601Z,62.83
2019-05-02T07:17:59.795Z,62.65
2019-05-02T07:20:29.280Z,62.33
2019-05-02T07:22:58.925Z,61.84
2019-05-02T07:25:28.501Z,61.81
2019-05-02T07:27:58.133Z,61.32
2019-05-02T07:30:30.133Z,61.04
2019-05-02T07:33:01.230Z,61.10
2019-05-02T07:35:30.112Z,60.40
2019-05-02T07:37:59.655Z,60.07
2019-05-02T07:40:29.271Z,58.99
2019-05-02T07:42:58.776Z,58.83
2019-05-02T07:45:28.296Z,57.93
2019-05-02T07:47:57.776Z,57.91
2019-05-02T07:50:27.369Z,58.23
2019-05-02T07:52:56.922Z,58.45
2019-05-02T07:55:26.506Z,56.28
2019-05-02T07:57:55.968Z,55.09
2019-05-02T08:00:25.883Z,54.23
2019-05-02T08:02:57.915Z,54.44
2019-05-02T08:05:26.679Z,53.87
2019-05-02T08:07:56.150Z,54.15
2019-05-02T08:10:25.654Z,53.39
2019-05-02T08:12:55.236Z,54.57
2019-05-02T08:15:24.969Z,54.29
2019-05-02T08:17:55.290Z,54.47
2019-05-02T08:20:24.909Z,55.05
2019-05-02T08:22:54.379Z,52.48
2019-05-02T08:25:24.014Z,53.44
2019-05-02T08:27:55.167Z,53.17
2019-05-02T08:30:26.528Z,52.97
2019-05-02T08:32:56.186Z,52.88
2019-05-02T08:35:27.982Z,53.07
2019-05-02T08:37:56.878Z,52.52
2019-05-02T08:40:26.366Z,52.30
2019-05-02T08:42:55.817Z,51.97
2019-05-02T08:45:25.301Z,51.21
2019-05-02T08:47:54.871Z,51.48
2019-05-02T08:50:27.201Z,51.07
2019-05-02T08:52:55.814Z,50.62
2019-05-02T08:55:25.394Z,50.84
2019-05-02T08:57:54.883Z,51.58
2019-05-02T09:00:24.521Z,51.06
2019-05-02T09:02:56.990Z,50.26
2019-05-02T09:05:25.346Z,50.41
2019-05-02T09:07:54.814Z,50.19
2019-05-02T09:10:24.391Z,50.52
2019-05-02T09:12:53.843Z,50.44
2019-05-02T09:15:23.327Z,50.04
2019-05-02T09:17:56.321Z,49.38
2019-05-02T09:20:24.371Z,49.16
2019-05-02T09:22:55.914Z,49.32
2019-05-02T09:25:25.324Z,48.99
2019-05-02T09:27:54.905Z,49.43
2019-05-02T09:30:25.933Z,49.28
2019-05-02T09:32:57.063Z,49.18
2019-05-02T09:35:26.733Z,49.34
2019-05-02T09:37:56.281Z,48.90
2019-05-02T09:40:25.912Z,49.50
2019-05-02T09:43:00.053Z,49.56
2019-05-02T09:45:35.816Z,49.19
2019-05-02T09:48:05.112Z,50.13
2019-05-02T09:50:32.198Z,49.77
2019-05-02T09:53:02.110Z,49.69
2019-05-02T09:55:31.859Z,49.16
2019-05-02T09:58:02.726Z,48.77
2019-05-02T10:00:36.332Z,49.84
2019-05-02T10:03:06.500Z,49.10
2019-05-02T10:05:36.086Z,48.53
2019-05-02T10:08:08.110Z,48.68
2019-05-02T10:10:41.394Z,49.63
2019-05-02T10:13:08.293Z,49.85
2019-05-02T10:15:38.019Z,48.50
2019-05-02T10:18:11.231Z,47.90
2019-05-02T10:20:39.000Z,48.50
2019-05-02T10:23:12.002Z,46.59
2019-05-02T10:25:44.646Z,46.52
2019-05-02T10:28:12.903Z,47.74
2019-05-02T10:30:47.015Z,47.94
2019-05-02T10:33:13.796Z,47.20
2019-05-02T10:35:47.838Z,46.69
2019-05-02T10:38:19.342Z,47.86
2019-05-02T10:40:53.479Z,46.92
2019-05-02T10:43:19.873Z,47.84
2019-05-02T10:45:56.719Z,47.92
2019-05-02T10:48:28.640Z,47.17
2019-05-02T10:51:14.905Z,45.88
2019-05-02T10:53:47.151Z,47.04
2019-05-02T10:56:15.611Z,46.25
2019-05-02T10:58:45.111Z,44.42
2019-05-02T11:01:15.166Z,45.17
2019-05-02T11:03:52.108Z,44.04
2019-05-02T11:06:22.246Z,43.76
2019-05-02T11:08:52.617Z,45.26
2019-05-02T11:11:22.788Z,43.86
2019-05-02T11:14:01.019Z,43.08
2019-05-02T11:16:28.170Z,43.76
2019-05-02T11:19:14.180Z,42.95
2019-05-02T11:21:55.342Z,43.47
2019-05-02T11:24:14.894Z,42.02
2019-05-02T11:26:44.558Z,42.43
2019-05-02T11:29:14.022Z,41.45
2019-05-02T11:31:43.572Z,42.60
2019-05-02T11:34:13.744Z,44.03
2019-05-02T11:36:43.352Z,41.35
2019-05-02T11:39:19.512Z,41.48
2019-05-02T11:41:44.384Z,42.72
2019-05-02T11:44:13.889Z,41.48
2019-05-02T11:46:46.937Z,42.46
2019-05-02T11:49:14.701Z,41.37
2019-05-02T11:51:46.968Z,40.93
2019-05-02T11:54:15.402Z,39.89
2019-05-02T11:56:48.999Z,40.18
2019-05-02T11:59:20.745Z,39.02
2019-05-02T12:01:57.582Z,40.29
2019-05-02T12:04:21.514Z,40.46
2019-05-02T12:07:01.088Z,40.66
2019-05-02T12:09:22.406Z,40.26
2019-05-02T12:11:56.539Z,40.23
2019-05-02T12:14:27.428Z,40.91
2019-05-02T12:16:54.485Z,41.15
2019-05-02T12:19:24.129Z,40.18
2019-05-02T12:21:56.228Z,39.50
2019-05-02T12:24:25.820Z,39.59
2019-05-02T12:26:55.344Z,39.96
2019-05-02T12:29:24.934Z,39.54
2019-05-02T12:31:56.376Z,38.49
2019-05-02T12:34:25.863Z,38.47
2019-05-02T12:36:55.341Z,36.72
2019-05-02T12:39:24.901Z,39.01
2019-05-02T12:41:54.772Z,38.21
2019-05-02T12:44:24.539Z,38.64
2019-05-02T12:46:54.070Z,37.72
2019-05-02T12:49:27.672Z,36.44
2019-05-02T12:51:54.849Z,36.94
2019-05-02T12:54:24.438Z,38.78
2019-05-02T12:56:53.987Z,36.97
2019-05-02T12:59:23.667Z,37.16
2019-05-02T13:01:53.195Z,37.07
2019-05-02T13:04:23.054Z,36.79
2019-05-02T13:06:53.151Z,36.77
2019-05-02T13:09:23.535Z,35.46
2019-05-02T13:12:03.257Z,34.96
2019-05-02T13:14:32.830Z,34.70
2019-05-02T13:17:05.825Z,36.13
2019-05-02T13:19:40.102Z,35.16
2019-05-02T13:22:06.960Z,35.87
2019-05-02T13:24:42.345Z,35.97
2019-05-02T13:27:14.662Z,36.26
2019-05-02T13:29:44.556Z,37.04
2019-05-02T13:32:23.577Z,37.55
2019-05-02T13:34:57.304Z,36.96
2019-05-02T13:37:27.141Z,35.83
2019-05-02T13:39:58.330Z,36.15
2019-05-02T13:42:27.974Z,36.34
2019-05-02T13:45:02.145Z,34.84
2019-05-02T13:47:32.536Z,34.44
2019-05-02T13:50:03.840Z,34.66
2019-05-02T13:52:33.726Z,36.14
2019-05-02T13:55:04.999Z,33.95
2019-05-02T13:57:41.724Z,35.11
2019-05-02T14:00:07.773Z,35.68
2019-05-02T14:02:42.674Z,34.22
2019-05-02T14:05:16.052Z,34.61
2019-05-02T14:07:56.998Z,34.32
2019-05-02T14:10:25.735Z,35.31
2019-05-02T14:12:54.964Z,35.16
2019-05-02T14:15:26.105Z,35.22
2019-05-02T14:17:55.686Z,35.12
2019-05-02T14:20:25.344Z,34.60
2019-05-02T14:22:54.797Z,34.70
2019-05-02T14:25:24.393Z,34.45
2019-05-02T14:27:55.581Z,35.19
2019-05-02T14:30:37.299Z,35.39
2019-05-02T14:33:02.376Z,34.77
2019-05-02T14:35:36.241Z,35.07
2019-05-02T14:38:09.539Z,34.53
2019-05-02T14:40:43.084Z,34.86
2019-05-02T14:43:14.454Z,34.34
2019-05-02T14:45:44.121Z,35.07
2019-05-02T14:48:21.467Z,35.01
2019-05-02T14:50:48.643Z,35.74
2019-05-02T14:53:22.098Z,36.04
2019-05-02T14:55:53.044Z,36.49
2019-05-02T14:58:22.597Z,37.16
2019-05-02T15:00:53.894Z,38.70
2019-05-02T15:03:27.132Z,40.34
2019-05-02T15:05:54.625Z,41.12
2019-05-02T15:08:24.116Z,41.27
2019-05-02T15:10:56.432Z,41.80
2019-05-02T15:13:24.892Z,42.26
2019-05-02T15:15:54.386Z,43.05
2019-05-02T15:18:23.870Z,43.78
2019-05-02T15:20:53.372Z,43.43
2019-05-02T15:23:22.941Z,44.24
2019-05-02T15:25:55.969Z,44.53
2019-05-02T15:28:23.777Z,44.52
2019-05-02T15:31:09.501Z,44.71
2019-05-02T15:34:00.730Z,44.97
2019-05-02T15:36:27.555Z,45.47
2019-05-02T15:38:57.034Z,45.74
2019-05-02T15:41:26.543Z,46.00
2019-05-02T15:43:56.116Z,46.10
2019-05-02T15:46:28.201Z,46.29
2019-05-02T15:48:57.188Z,46.30
2019-05-02T15:51:28.154Z,46.51
2019-05-02T15:54:06.057Z,47.00
2019-05-02T15:56:32.348Z,47.15
2019-05-02T15:59:03.445Z,47.80
2019-05-02T16:01:47.746Z,47.76
2019-05-02T16:04:17.223Z,48.40
2019-05-02T16:06:47.781Z,48.14
2019-05-02T16:09:17.430Z,48.59
2019-05-02T16:11:47.989Z,48.67
2019-05-02T16:14:17.690Z,49.12
2019-05-02T16:16:47.186Z,49.65
2019-05-02T16:19:24.671Z,50.97
2019-05-02T16:21:49.639Z,52.14
2019-05-02T16:24:19.416Z,53.56
2019-05-02T16:26:52.862Z,53.37
2019-05-02T16:29:26.847Z,53.86
2019-05-02T16:31:59.671Z,54.09
2019-05-02T16:34:31.722Z,54.52
2019-05-02T16:37:16.373Z,55.24
2019-05-02T16:39:49.429Z,55.84
2019-05-02T16:42:14.462Z,56.70
2019-05-02T16:44:43.968Z,56.83
2019-05-02T16:47:14.078Z,57.90
2019-05-02T16:49:47.920Z,59.06
2019-05-02T16:52:16.148Z,59.28
2019-05-02T16:54:45.729Z,59.95
2019-05-02T16:57:17.543Z,59.77
2019-05-02T16:59:46.621Z,60.24
2019-05-02T17:02:16.278Z,61.46
2019-05-02T17:04:45.783Z,61.38
2019-05-02T17:07:16.907Z,61.21
2019-05-02T17:09:48.739Z,60.86
2019-05-02T17:12:18.306Z,62.00
2019-05-02T17:15:07.738Z,62.25
2019-05-02T17:17:36.890Z,61.67
2019-05-02T17:20:15.030Z,62.12
2019-05-02T17:22:39.116Z,61.84
2019-05-02T17:25:08.854Z,61.97
2019-05-02T17:27:38.441Z,62.30
2019-05-02T17:30:12.019Z,62.33
2019-05-02T17:32:41.711Z,62.93
2019-05-02T17:35:14.563Z,61.95
2019-05-02T17:37:48.760Z,61.93
2019-05-02T17:40:16.790Z,62.25
2019-05-02T17:42:46.472Z,62.37
2019-05-02T17:45:16.759Z,62.64
2019-05-02T17:47:47.336Z,62.93
2019-05-02T17:50:19.563Z,62.84
2019-05-02T17:53:01.011Z,62.76
2019-05-02T17:55:32.782Z,63.33
2019-05-02T17:57:59.353Z,62.49
2019-05-02T18:00:30.733Z,62.55
2019-05-02T18:03:00.216Z,62.20
2019-05-02T18:05:32.017Z,62.38
2019-05-02T18:08:00.926Z,62.54
2019-05-02T18:10:32.312Z,63.26
2019-05-02T18:13:02.682Z,62.75
2019-05-02T18:15:34.774Z,62.77
2019-05-02T18:18:06.862Z,62.88
2019-05-02T18:20:37.140Z,63.11
2019-05-02T18:23:06.521Z,63.14
2019-05-02T18:25:36.182Z,63.85
2019-05-02T18:28:06.251Z,63.23
2019-05-02T18:30:35.739Z,63.10
2019-05-02T18:33:07.328Z,63.38
2019-05-02T18:35:37.459Z,62.92
2019-05-02T18:38:08.496Z,62.69
2019-05-02T18:40:38.149Z,62.87
2019-05-02T18:43:07.721Z,62.98
2019-05-02T18:45:37.292Z,62.92
2019-05-02T18:48:07.089Z,62.99
2019-05-02T18:50:44.414Z,63.04
2019-05-02T18:53:13.621Z,63.10
2019-05-02T18:55:43.387Z,63.44
2019-05-02T18:58:13.065Z,63.47
2019-05-02T19:00:42.736Z,63.08
2019-05-02T19:03:16.971Z,63.08
2019-05-02T19:05:46.511Z,63.55
2019-05-02T19:08:27.910Z,63.95
2019-05-02T19:11:02.516Z,63.70
2019-05-02T19:13:18.658Z,64.00
2019-05-02T19:15:49.013Z,63.71
2019-05-02T19:18:19.667Z,64.11
2019-05-02T19:20:57.730Z,64.35
2019-05-02T19:23:27.432Z,64.40
2019-05-02T19:26:03.752Z,64.27
2019-05-02T19:28:39.247Z,64.16
2019-05-02T19:31:08.958Z,64.44
2019-05-02T19:33:42.705Z,63.91
2019-05-02T19:36:09.992Z,64.40
2019-05-02T19:38:39.607Z,64.49
2019-05-02T19:41:09.446Z,64.71
2019-05-02T19:43:49.283Z,65.29
2019-05-02T19:46:12.258Z,64.93
2019-05-02T19:48:43.070Z,64.84
2019-05-02T19:51:18.499Z,64.96
2019-05-02T19:53:44.127Z,65.09
2019-05-02T19:56:13.875Z,65.70
2019-05-02T19:58:46.647Z,65.42
2019-05-02T20:01:17.391Z,65.56
2019-05-02T20:03:46.052Z,65.78
2019-05-02T20:06:15.667Z,65.64
2019-05-02T20:08:45.284Z,65.79
2019-05-02T20:11:14.937Z,66.24
2019-05-02T20:13:44.444Z,66.08
2019-05-02T20:16:44.203Z,66.14
2019-05-02T20:19:08.833Z,66.20
2019-05-02T20:21:40.046Z,65.89
2019-05-02T20:24:17.533Z,65.76
2019-05-02T20:26:41.772Z,66.28
2019-05-02T20:29:11.539Z,66.38
2019-05-02T20:31:41.092Z,66.08
2019-05-02T20:34:11.794Z,66.06
2019-05-02T20:36:42.589Z,66.37
2019-05-02T20:39:12.168Z,66.05
2019-05-02T20:41:42.047Z,65.85
2019-05-02T20:44:12.158Z,66.53
2019-05-02T20:46:42.216Z,66.39
2019-05-02T20:49:12.889Z,66.34
2019-05-02T20:51:42.568Z,66.46
2019-05-02T20:54:12.492Z,66.58
2019-05-02T20:56:42.698Z,66.66
2019-05-02T20:59:12.871Z,66.24
2019-05-02T21:01:43.019Z,66.68
2019-05-02T21:04:12.749Z,67.00
2019-05-02T21:06:44.241Z,66.68
2019-05-02T21:09:25.507Z,66.96
2019-05-02T21:11:56.730Z,65.03
2019-05-02T21:14:26.204Z,65.09
2019-05-02T21:16:55.839Z,65.54
2019-05-02T21:19:25.337Z,65.74
2019-05-02T21:21:57.208Z,65.64
2019-05-02T21:24:26.749Z,65.24
2019-05-02T21:26:56.250Z,65.35
2019-05-02T21:29:25.804Z,64.05
2019-05-02T21:31:56.638Z,63.01
2019-05-02T21:34:26.157Z,63.12
2019-05-02T21:36:55.622Z,62.58
2019-05-02T21:39:25.286Z,61.61
2019-05-02T21:41:54.841Z,61.73
2019-05-02T21:44:24.560Z,61.59
2019-05-02T21:46:54.095Z,61.12
2019-05-02T21:49:40.243Z,61.29
2019-05-02T21:52:18.377Z,61.45
2019-05-02T21:54:49.572Z,61.55
2019-05-02T21:57:20.449Z,61.59
2019-05-02T21:59:52.712Z,62.02
2019-05-02T22:02:22.658Z,61.99
2019-05-02T22:04:52.906Z,62.36
2019-05-02T22:07:22.625Z,62.70
2019-05-02T22:09:52.455Z,62.61
2019-05-02T22:12:22.522Z,63.16
2019-05-02T22:14:52.791Z,63.03
2019-05-02T22:17:22.487Z,63.32
2019-05-02T22:19:52.457Z,63.04
2019-05-02T22:22:22.823Z,63.17
2019-05-02T22:24:52.938Z,63.24
2019-05-02T22:27:22.607Z,63.59
2019-05-02T22:29:54.621Z,63.76
2019-05-02T22:32:23.373Z,63.71
2019-05-02T22:34:55.836Z,63.95
2019-05-02T22:37:25.551Z,63.99
2019-05-02T22:39:56.698Z,64.44
2019-05-02T22:42:26.339Z,64.39
2019-05-02T22:44:55.835Z,64.48
2019-05-02T22:47:25.589Z,64.81
2019-05-02T22:49:55.084Z,64.91
2019-05-02T22:52:24.555Z,65.48
2019-05-02T22:54:54.040Z,65.41
2019-05-02T22:57:23.529Z,65.44
2019-05-02T22:59:53.030Z,65.99
2019-05-02T23:02:22.780Z,66.01
2019-05-02T23:04:52.727Z,66.00
2019-05-02T23:07:22.965Z,66.05
2019-05-02T23:09:52.887Z,66.12
2019-05-02T23:12:24.931Z,66.06
2019-05-02T23:14:53.706Z,65.95
2019-05-02T23:17:23.360Z,65.95
2019-05-02T23:19:52.955Z,66.07
2019-05-02T23:22:22.497Z,65.94
2019-05-02T23:24:54.630Z,66.19
2019-05-02T23:27:25.749Z,66.30
2019-05-02T23:29:55.252Z,65.79
2019-05-02T23:32:24.741Z,65.74
2019-05-02T23:34:54.295Z,65.77
2019-05-02T23:37:23.826Z,65.68
2019-05-02T23:39:53.322Z,65.58
2019-05-02T23:42:22.877Z,65.73
2019-05-02T23:44:52.403Z,65.72
2019-05-02T23:47:22.444Z,65.71
2019-05-02T23:49:52.210Z,65.82
2019-05-02T23:52:22.428Z,65.75
2019-05-02T23:54:52.543Z,65.87
2019-05-02T23:57:22.995Z,65.87
2019-05-02T23:59:52.668Z,65.63
